Terminal Aerodrome Forecast
Issued by NWS

Home | Current Version | Previous Version | Text Only | Print | Product List | Glossary On
Versions: 1 2 3 4 5 6 7 8 9 10 11 12 13
000
FTUS43 KMQT 290500
TAFIWD
TAF
KIWD 290526Z 2906/3006 14005KT P6SM SCT020 BKN100
     FM290900 15007KT P6SM -RA OVC025
     FM291200 17005KT 5SM -RA BR OVC010
     FM291900 20009KT P6SM -SHRA BKN020
      AMD NOT SKED=

USA.gov is the U.S. government's official web portal to all federal, state and local government web resources and services.